Tiempo atmosférico en la estación meteorológica de Cenicero, La Rioja (429 m.)



Fecha
DESCASC
Temp. máxima en grados centígrados (hora)
DESCASC
Temp. mínima en grados centígrados (hora)
DESCASC
Temp. media en grados centígrados
DESCASC
Racha de viento máxima en m/sg (hora)
DESCASC
Velocidad máxima media en intervalos de 10 minutos(hora)
DESCASC
Precipitaciones diarias en mm
DESCASC
Precipitaciones de 00:00 a 06:00 en mm
DESCASC
Precipitaciones de 06:00 a 12:00 en mm
DESCASC
Precipitaciones de 12:00 a 18:00 en mm
DESCASC
Precipitaciones de 18:00 a 24:00 en mm
DESCASC
17-02-2019 15.1 (16:40) 1.5 (08:50) 8.3 11.67 (14:50) 6.94 (14:40) 0 0 0 0 0
16-02-2019 13.4 (17:00) -1.9 (08:10) 5.7 13.89 (16:20) 7.78 (15:20) 0 0 0 0 0
15-02-2019 12.3 (16:40) 1.4 (07:50) 6.9 7.22 (12:10) 3.89 (13:20) 0 0 0 0 0
14-02-2019 11.6 (17:40) 3.7 (00:00) 7.7 14.72 (14:00) 8.33 (11:20) 0 0 0 0 0
13-02-2019 12.5 (16:40) -1.3 (-00:0) 5.6 7.78 (16:10) 4.44 (15:00) 0 0 0 0 0
12-02-2019 13.1 (16:40) 1.7 (00:00) 7.4 4.17 (16:50) 2.22 (17:10) 0 0 0 0 0
11-02-2019 10 (13:40) 4.4 (00:00) 7.2 7.5 (16:30) 4.72 (16:30) 0.2 0 0.2 0 0
10-02-2019 16.3 (13:50) 4.7 (00:00) 10.5 18.33 (14:50) 10.83 (14:10) 2.4 0 0 2.4 0
09-02-2019 14.5 (15:20) 5.4 (00:00) 10 8.61 (13:20) 5 (13:40) 0 0 0 0 0
08-02-2019 12.9 (17:00) 0.9 (00:00) 6.9 5 (14:30) 2.78 (14:10) 0 0 0 0 0
07-02-2019 14 (15:00) 4.4 (00:00) 9.2 7.78 (05:30) 4.72 (05:30) 0 0 0 0 0
06-02-2019 15.3 (16:40) 0.8 (00:00) 8.1 7.5 (14:40) 4.72 (15:10) 0 0 0 0 0
05-02-2019 14.3 (16:50) 4.5 (00:00) 9.4 7.78 (13:40) 5 (13:00) 0 0 0 0 0
04-02-2019 7.2 (17:10) -0.6 (-00:0) 3.3 10.28 (18:10) 6.39 (13:30) 0 0 0 0 0
03-02-2019 6.1 (15:20) 0.7 (00:00) 3.4 11.11 (01:50) 6.11 (00:30) 4.6 2.4 1 1.2 0
02-02-2019 5.5 (00:00) 0.6 (00:00) 3.1 16.39 (12:10) 8.33 (07:40) 33 19.4 3.4 6 4.2
01-02-2019 11.4 (13:00) 5.1 (00:00) 8.2 17.22 (16:30) 8.89 (16:30) 0 0 0 0 0
31-01-2019 7.5 (14:40) 4 (00:00) 5.8 6.67 (12:10) 3.33 (12:10) 13.2 4.2 5.8 0 3.2
30-01-2019 9.5 (15:40) 3.9 (00:00) 6.7 13.06 (00:10) 8.06 (00:20) 7 0 0 0 7
29-01-2019 12 (15:40) 3.9 (00:00) 8 16.67 (16:10) 9.17 (15:20) 3.8 0 0 3.8 0
28-01-2019 8.3 (14:10) 4.3 (00:00) 6.3 13.89 (12:50) 8.33 (12:50) 5.4 0 1.2 4 0.2
27-01-2019 8.9 (12:20) 5.1 (00:00) 7 14.72 (12:10) 8.33 (12:10) 0 0 0 0 0
26-01-2019 12.4 (16:40) 4.8 (00:00) 8.6 10.56 (17:30) 6.94 (18:00) 0 0 0 0 0
25-01-2019 10.7 (12:20) 7.6 (00:00) 9.1 11.11 (14:00) 6.39 (14:00) 1 0.6 0.4 0 0
24-01-2019 8.2 (23:00) 5.4 (00:00) 6.8 11.11 (00:20) 6.11 (00:10) 1.8 0.4 0.8 0.2 0.4
23-01-2019 9.6 (16:00) 3.5 (00:00) 6.6 17.22 (08:20) 10 (08:20) 6.4 4.6 1.4 0 0.4
22-01-2019 5.3 (16:00) 1.5 (00:00) 3.4 10.28 (16:20) 5.83 (16:20) 4.8 0 0 2.2 2.6
21-01-2019 7.1 (15:20) 3.2 (00:00) 5.1 9.72 (14:10) 5.28 (12:20) 0.6 0 0.6 0 0
20-01-2019 8 (13:30) 4.3 (00:00) 6.2 8.89 (13:30) 5.28 (12:00) 4 1.6 0.8 1.2 0.4
19-01-2019 8.9 (15:00) 3.9 (00:00) 6.4 8.89 (02:10) 5.28 (01:20) 3 0 0 0.4 2.6

Gráficas

Temp. máximas Temp. mínimas Temp. medias Precipitaciones Rachas de viento máximas Velocidades máximas media en intervalos de 10 minutos

Datos horarios

Fecha y hora oficial Temperatura (ºC) Velocidad del viento (km/h) Dirección del viento Racha (km/h) Dirección de racha Precipitación (mm) Presión (hPa) Tendencia (hPa) Humedad (%)
2019-02-17 23:00:00 8.2 3 Este 21 Este 0 -- -- 44
2019-02-17 22:00:00 9.1 4 Este 13 Este 0 -- -- 40
2019-02-17 21:00:00 10.1 4 Este 21 Sudeste 0 -- -- 37
2019-02-17 20:00:00 11 5 Este 28 Este 0 -- -- 34
2019-02-17 19:00:00 12.4 18 Este 40 Este 0 -- -- 30
2019-02-17 18:00:00 14 21 Este 39 Este 0 -- -- 27
2019-02-17 17:00:00 15 14 Este 41 Este 0 -- -- 28
2019-02-17 16:00:00 14.6 25 Este 40 Este 0 -- -- 26
2019-02-17 15:00:00 13.9 24 Este 42 Este 0 -- -- 26
2019-02-17 14:00:00 12.8 23 Este 38 Este 0 -- -- 29
2019-02-17 13:00:00 10.8 16 Este 32 Este 0 -- -- 34
2019-02-17 12:00:00 8.9 13 Este 26 Este 0 -- -- 40
2019-02-17 11:00:00 7 9 Este 18 Sudeste 0 -- -- 44
2019-02-17 10:00:00 4.8 9 Este 15 Este 0 -- -- 53
2019-02-17 09:00:00 1.6 3 Nordeste 8 Este 0 -- -- 69
2019-02-17 08:00:00 2.7 3 Sudeste 11 Sudeste 0 -- -- 60
2019-02-17 07:00:00 3 3 Sudeste 12 Sudeste 0 -- -- 61
2019-02-17 06:00:00 3.5 5 Sudeste 11 Sudeste 0 -- -- 60
2019-02-17 05:00:00 3.6 4 Sur 10 Este 0 -- -- 62
2019-02-17 04:00:00 4.8 5 Sudeste 24 Este 0 -- -- 59
2019-02-17 03:00:00 6.1 12 Este 26 Este 0 -- -- 54
2019-02-17 02:00:00 6.7 11 Este 25 Este 0 -- -- 52
2019-02-17 01:00:00 7.5 12 Este 34 Este 0 -- -- 54
2019-02-17 00:00:00 8.2 17 Este 31 Este 0 -- -- 56
2019-02-16 23:00:00 8.5 14 Este 29 Este 0 -- -- 55
2019-02-16 22:00:00 9.4 17 Este 34 Sudeste 0 -- -- 51
2019-02-16 21:00:00 9.6 19 Este 35 Este 0 -- -- 53
2019-02-16 20:00:00 10.4 18 Este 31 Este 0 -- -- 53
2019-02-16 19:00:00 11.7 23 Este 37 Este 0 -- -- 46
2019-02-16 18:00:00 13 22 Este 41 Este 0 -- -- 47
2019-02-16 17:00:00 13.4 22 Este 50 Este 0 -- -- 49
2019-02-16 16:00:00 12.8 28 Este 47 Este 0 -- -- 55
2019-02-16 15:00:00 11.9 26 Este 41 Este 0 -- -- 64
2019-02-16 14:00:00 10.8 25 Este 45 Este 0 -- -- 67
2019-02-16 13:00:00 9.2 24 Este 43 Este 0 -- -- 72
2019-02-16 12:00:00 7.9 15 Este 31 Sudeste 0 -- -- 72
2019-02-16 11:00:00 2.8 2 Noroeste 5 Noroeste 0 -- -- 100
2019-02-16 10:00:00 -0.4 0 Calma 2 Noroeste 0 -- -- 99
2019-02-16 09:00:00 -1.7 0 Calma 2 Sudoeste 0 -- -- 98
2019-02-16 08:00:00 -1.8 0 Calma 2 Sudoeste 0 -- -- 97
2019-02-16 07:00:00 -1.3 0 Calma 5 Sudoeste 0 -- -- 95
2019-02-16 06:00:00 -0.8 2 Sudoeste 3 Sudoeste 0 -- -- 95
2019-02-16 05:00:00 -0.3 0 Calma 4 Oeste 0 -- -- 94
2019-02-16 04:00:00 0.3 0 Calma 5 Sudoeste 0 -- -- 94
2019-02-16 03:00:00 0.5 4 Oeste 6 Oeste 0 -- -- 93
2019-02-16 02:00:00 1.1 0 Calma 4 Sudoeste 0 -- -- 90
2019-02-16 01:00:00 1.8 0 Calma 5 Sudoeste 0 -- -- 87
2019-02-16 00:00:00 2.8 2 Sudoeste 4 Sudoeste 0 -- -- 84
2019-02-15 23:00:00 4 0 Calma 3 Sudoeste 0 -- -- 79
2019-02-15 22:00:00 5.5 2 Sudeste 4 Sudeste 0 -- -- 74
2019-02-15 21:00:00 6.4 2 Este 7 Este 0 -- -- 68
2019-02-15 20:00:00 8.7 4 Sudeste 14 Este 0 -- -- 58
2019-02-15 19:00:00 10.4 10 Este 17 Este 0 -- -- 48
2019-02-15 18:00:00 11.9 9 Este 16 Sudeste 0 -- -- 50
2019-02-15 17:00:00 12.3 9 Este 21 Este 0 -- -- 58
2019-02-15 16:00:00 11.9 9 Este 24 Este 0 -- -- 60
2019-02-15 15:00:00 11.1 13 Este 24 Sudeste 0 -- -- 64
2019-02-15 14:00:00 10.1 13 Este 26 Este 0 -- -- 70
2019-02-15 13:00:00 9.1 13 Sudeste 26 Sudeste 0 -- -- 71
2019-02-15 12:00:00 7.6 11 Este 21 Este 0 -- -- 78
2019-02-15 11:00:00 6.1 12 Este 21 Este 0 -- -- 82
2019-02-15 10:00:00 4.7 6 Este 15 Este 0 -- -- 85
2019-02-15 09:00:00 1.6 0 Calma 5 Este 0 -- -- 91
2019-02-15 08:00:00 1.4 2 Este 6 Este 0 -- -- 90
2019-02-15 07:00:00 1.9 3 Este 6 Este 0 -- -- 89
2019-02-15 06:00:00 2.1 3 Este 6 Este 0 -- -- 88
2019-02-15 05:00:00 2.7 0 Calma 4 Este 0 -- -- 85
2019-02-15 04:00:00 4.1 0 Calma 13 Sudeste 0 -- -- 81
2019-02-15 03:00:00 5.6 4 Sudeste 21 Sudeste 0 -- -- 75
2019-02-15 02:00:00 6.1 12 Este 25 Este 0 -- -- 73
2019-02-15 01:00:00 6.6 12 Este 22 Este 0 -- -- 74
2019-02-15 00:00:00 7 11 Sudeste 23 Este 0 -- -- 74
2019-02-14 23:00:00 7.2 7 Sudeste 14 Este 0 -- -- 70
2019-02-14 22:00:00 7.5 4 Sudeste 17 Este 0 -- -- 65
2019-02-14 21:00:00 8.9 10 Sudeste 23 Este 0 -- -- 58
2019-02-14 20:00:00 9.5 9 Este 26 Sudeste 0 -- -- 55
2019-02-14 19:00:00 10.3 12 Este 32 Este 0 -- -- 55
2019-02-14 18:00:00 11.3 22 Este 39 Este 0 -- -- 51
2019-02-14 17:00:00 11.5 17 Este 42 Este 0 -- -- 52
2019-02-14 16:00:00 11.1 20 Este 44 Este 0 -- -- 56
2019-02-14 15:00:00 10.5 26 Este 49 Este 0 -- -- 63
2019-02-14 14:00:00 9.7 26 Este 53 Este 0 -- -- 67
2019-02-14 13:00:00 8.1 26 Este 50 Este 0 -- -- 78
2019-02-14 12:00:00 6.3 27 Este 53 Este 0 -- -- 88
2019-02-14 11:00:00 5.4 26 Este 53 Este 0 -- -- 94
2019-02-14 10:00:00 4.9 24 Este 42 Este 0 -- -- 96
2019-02-14 09:00:00 4.6 14 Este 36 Este 0 -- -- 96
2019-02-14 08:00:00 4.6 21 Este 45 Sudeste 0 -- -- 95
2019-02-14 07:00:00 4.5 14 Este 26 Este 0 -- -- 89
2019-02-14 06:00:00 4.5 13 Este 28 Este 0 -- -- 85
2019-02-14 05:00:00 4.9 13 Este 24 Este 0 -- -- 81
2019-02-14 04:00:00 4.9 6 Este 16 Este 0 -- -- 82
2019-02-14 03:00:00 5.3 8 Este 18 Este 0 -- -- 81
2019-02-14 02:00:00 5.6 8 Este 19 Este 0 -- -- 82
2019-02-14 01:00:00 4.1 4 Este 17 Este 0 -- -- 93
2019-02-14 00:00:00 4.3 0 Calma 3 Oeste 0 -- -- 85
2019-02-13 23:00:00 5.1 0 Calma 3 Nordeste 0 -- -- 83
2019-02-13 22:00:00 6.4 2 Sudeste 4 Este 0 -- -- 78
2019-02-13 21:00:00 7.7 3 Sudeste 4 Sudeste 0 -- -- 73
2019-02-13 20:00:00 9.3 4 Este 14 Este 0 -- -- 67
2019-02-13 19:00:00 10.6 6 Este 21 Este 0 -- -- 61
2019-02-13 18:00:00 11.8 12 Este 27 Este 0 -- -- 57
2019-02-13 17:00:00 12.3 14 Este 28 Este 0 -- -- 54
2019-02-13 16:00:00 12.2 15 Este 25 Este 0 -- -- 56
2019-02-13 15:00:00 11.7 16 Este 26 Este 0 -- -- 57
2019-02-13 14:00:00 11.1 12 Este 24 Este 0 -- -- 56
2019-02-13 13:00:00 10.1 10 Este 17 Este 0 -- -- 61
2019-02-13 12:00:00 7.4 3 Norte 5 Nordeste 0 -- -- 70
2019-02-13 11:00:00 4.5 2 Noroeste 6 Oeste 0 -- -- 88
2019-02-13 10:00:00 1.6 0 Calma 3 Oeste 0 -- -- 98
2019-02-13 09:00:00 -1.1 0 Calma 3 Sudoeste 0 -- -- 97
2019-02-13 08:00:00 -1.1 2 Sudoeste 4 Sudoeste 0 -- -- 96
2019-02-13 07:00:00 -0.7 0 Calma 4 Oeste 0 -- -- 96
2019-02-13 06:00:00 -0.5 0 Calma 3 Oeste 0 -- -- 95
2019-02-13 05:00:00 0 0 Calma 4 Sudoeste 0 -- -- 94
2019-02-13 04:00:00 0.3 2 Sudoeste 4 Sudoeste 0 -- -- 93
2019-02-13 03:00:00 0.8 0 Calma 3 Norte 0 -- -- 92
2019-02-13 02:00:00 1.4 2 Oeste 3 Sudoeste 0 -- -- 90
2019-02-13 01:00:00 1.9 2 Oeste 6 Sudoeste 0 -- -- 88
2019-02-13 00:00:00 2.7 0 Calma 5 Sudoeste 0 -- -- 87
2019-02-12 23:00:00 3.4 0 Calma 4 Sudoeste 0 -- -- 82
2019-02-12 22:00:00 4.4 4 Sudoeste 7 Sudoeste 0 -- -- 78
2019-02-12 21:00:00 6 0 Calma 5 Sudeste 0 -- -- 72
2019-02-12 20:00:00 7.8 0 Calma 4 Sur 0 -- -- 62
2019-02-12 19:00:00 10.1 2 Sudeste 10 Este 0 -- -- 53
2019-02-12 18:00:00 12.3 5 Este 13 Este 0 -- -- 46
2019-02-12 17:00:00 12.9 8 Este 15 Este 0 -- -- 43
2019-02-12 16:00:00 12.9 4 Este 11 Este 0 -- -- 42
2019-02-12 15:00:00 12.3 3 Este 8 Sudeste 0 -- -- 44
2019-02-12 14:00:00 11.4 5 Este 9 Sudeste 0 -- -- 50
2019-02-12 13:00:00 9.9 2 Noroeste 8 Oeste 0 -- -- 58
2019-02-12 12:00:00 8.3 3 Noroeste 8 Noroeste 0 -- -- 67
2019-02-12 11:00:00 6.4 3 Noroeste 8 Noroeste 0 -- -- 78
2019-02-12 10:00:00 4.3 3 Oeste 5 Oeste 0 -- -- 90
2019-02-12 09:00:00 2.1 2 Sudeste 6 Este 0 -- -- 95
2019-02-12 08:00:00 2.2 0 Calma 13 Sudoeste 0 -- -- 96
2019-02-12 07:00:00 1.8 3 Oeste 8 Sudoeste 0 -- -- 97
2019-02-12 06:00:00 1.7 3 Oeste 7 Noroeste 0 -- -- 96
2019-02-12 05:00:00 2.3 3 Oeste 6 Oeste 0 -- -- 95
2019-02-12 04:00:00 3 2 Oeste 3 Sur 0 -- -- 94
2019-02-12 03:00:00 3.5 0 Calma 10 Sudoeste 0 -- -- 91
2019-02-12 02:00:00 3.9 4 Sudoeste 10 Sudoeste 0 -- -- 91
2019-02-12 01:00:00 4.4 4 Sudoeste 8 Sudoeste 0 -- -- 88
2019-02-12 00:00:00 5.2 5 Sudoeste 9 Sur 0 -- -- 87
2019-02-11 23:00:00 5.5 3 Sur 11 Sur 0 -- -- 86
2019-02-11 22:00:00 5.2 4 Sur 12 Sudoeste 0 -- -- 87
2019-02-11 21:00:00 5.8 6 Sudoeste 12 Sudoeste 0 -- -- 83
2019-02-11 20:00:00 6.8 5 Noroeste 13 Oeste 0 -- -- 78
2019-02-11 19:00:00 7.9 4 Noroeste 17 Norte 0 -- -- 73
2019-02-11 18:00:00 8.9 6 Norte 15 Oeste 0 -- -- 69
2019-02-11 17:00:00 9.4 11 Noroeste 27 Noroeste 0 -- -- 64
2019-02-11 16:00:00 9.1 12 Noroeste 22 Noroeste 0 -- -- 68
2019-02-11 15:00:00 9.2 8 Noroeste 23 Norte 0 -- -- 67
2019-02-11 14:00:00 9.9 12 Noroeste 23 Noroeste 0 -- -- 63
2019-02-11 13:00:00 9.7 14 Oeste 26 Oeste 0 -- -- 65
2019-02-11 12:00:00 8.6 12 Oeste 22 Oeste 0 -- -- 69
2019-02-11 11:00:00 7.9 11 Oeste 20 Oeste 0 -- -- 70
2019-02-11 10:00:00 5.7 8 Oeste 15 Oeste 0 -- -- 79
2019-02-11 09:00:00 4.8 10 Oeste 15 Oeste 0 -- -- 82
2019-02-11 08:00:00 4.4 8 Oeste 17 Noroeste 0 -- -- 86
2019-02-11 07:00:00 4.7 3 Noroeste 15 Noroeste 0.2 -- -- 86
2019-02-11 06:00:00 5.5 9 Oeste 21 Oeste 0 -- -- 83
2019-02-11 05:00:00 5.9 12 Oeste 26 Oeste 0 -- -- 78
2019-02-11 04:00:00 5.4 6 Oeste 17 Oeste 0 -- -- 86
2019-02-11 03:00:00 6.6 12 Oeste 23 Sudoeste 0 -- -- 77
2019-02-11 02:00:00 6.3 2 Noroeste 19 Oeste 0 -- -- 86
2019-02-11 01:00:00 6.7 8 Oeste 18 Oeste 0 -- -- 85
2019-02-11 00:00:00 6.9 8 Oeste 17 Oeste 0 -- -- 85
2019-02-10 23:00:00 7.1 11 Oeste 18 Oeste 0 -- -- 82
2019-02-10 22:00:00 7.1 6 Noroeste 14 Noroeste 0 -- -- 83
2019-02-10 21:00:00 7.4 3 Oeste 17 Oeste 0 -- -- 81
2019-02-10 20:00:00 7.5 4 Oeste 10 Oeste 0 -- -- 85
2019-02-10 19:00:00 7.9 6 Noroeste 19 Noroeste 0 -- -- 83
2019-02-10 18:00:00 9 7 Oeste 14 Oeste 0.8 -- -- 91
2019-02-10 17:00:00 9.6 5 Oeste 12 Oeste 1.2 -- -- 90
2019-02-10 16:00:00 9.9 9 Noroeste 28 Noroeste 0.4 -- -- 86
2019-02-10 15:00:00 12.8 23 Noroeste 66 Oeste 0 -- -- 76
2019-02-10 14:00:00 16.3 34 Oeste 61 Oeste 0 -- -- 53
2019-02-10 13:00:00 15.3 32 Oeste 54 Oeste 0 -- -- 56
2019-02-10 12:00:00 13.9 17 Oeste 37 Oeste 0 -- -- 60
2019-02-10 11:00:00 13.1 19 Oeste 40 Sudoeste 0 -- -- 62
2019-02-10 10:00:00 8.2 5 Sur 10 Sur 0 -- -- 81
2019-02-10 09:00:00 7.7 3 Sudoeste 12 Sudoeste 0 -- -- 81
2019-02-10 08:00:00 7.2 5 Sudeste 11 Oeste 0 -- -- 83
2019-02-10 07:00:00 6.7 5 Oeste 14 Oeste 0 -- -- 83
2019-02-10 06:00:00 6.1 3 Sudoeste 17 Sudoeste 0 -- -- 84
2019-02-10 05:00:00 5 4 Sudoeste 10 Sudoeste 0 -- -- 94
2019-02-10 04:00:00 4.9 3 Sudeste 10 Sudoeste 0 -- -- 93
2019-02-10 03:00:00 4.8 0 Calma 6 Sur 0 -- -- 93
2019-02-10 02:00:00 5.3 2 Sudoeste 7 Sudoeste 0 -- -- 90
2019-02-10 01:00:00 5.9 3 Sudoeste 9 Sudoeste 0 -- -- 90
2019-02-10 00:00:00 6.3 0 Calma 8 Sudeste 0 -- -- 88
2019-02-09 23:00:00 7 0 Calma 6 Oeste 0 -- -- 88
2019-02-09 22:00:00 7.7 2 Oeste 6 Sur 0 -- -- 83
2019-02-09 21:00:00 8.9 3 Sudeste 5 Sur 0 -- -- 80
2019-02-09 20:00:00 9.9 4 Sudeste 7 Sudeste 0 -- -- 75
2019-02-09 19:00:00 11.3 7 Este 17 Este 0 -- -- 68
2019-02-09 18:00:00 13 4 Este 9 Norte 0 -- -- 57
2019-02-09 17:00:00 13.7 5 Noroeste 17 Noroeste 0 -- -- 54
2019-02-09 16:00:00 14.1 9 Noroeste 21 Noroeste 0 -- -- 51
2019-02-09 15:00:00 14.2 10 Noroeste 24 Noroeste 0 -- -- 52
2019-02-09 14:00:00 13.5 15 Noroeste 31 Noroeste 0 -- -- 54
2019-02-09 13:00:00 13.3 13 Noroeste 26 Noroeste 0 -- -- 56
2019-02-09 12:00:00 11.9 6 Noroeste 20 Noroeste 0 -- -- 68
2019-02-09 11:00:00 10 11 Oeste 22 Sudoeste 0 -- -- 75
2019-02-09 10:00:00 7.9 11 Oeste 23 Sudoeste 0 -- -- 81
2019-02-09 09:00:00 6.9 13 Oeste 26 Sudoeste 0 -- -- 84
2019-02-09 08:00:00 6.6 16 Sudoeste 25 Sudoeste 0 -- -- 85
2019-02-09 07:00:00 6.6 16 Oeste 28 Oeste 0 -- -- 84
2019-02-09 06:00:00 6.6 15 Oeste 24 Oeste 0 -- -- 85
2019-02-09 05:00:00 6.6 13 Oeste 27 Sudoeste 0 -- -- 83
2019-02-09 04:00:00 6.7 14 Oeste 25 Oeste 0 -- -- 83
2019-02-09 03:00:00 6.9 9 Oeste 26 Oeste 0 -- -- 81
2019-02-09 02:00:00 7.2 17 Oeste 26 Oeste 0 -- -- 80
2019-02-09 01:00:00 5.5 4 Oeste 11 Oeste 0 -- -- 90
2019-02-09 00:00:00 5.6 3 Oeste 10 Sudoeste 0 -- -- 88
2019-02-08 23:00:00 6.7 3 Sudeste 8 Sur 0 -- -- 84
2019-02-08 22:00:00 7 2 Sur 7 Sudoeste 0 -- -- 83
2019-02-08 21:00:00 6.8 4 Oeste 9 Oeste 0 -- -- 85
2019-02-08 20:00:00 8.3 4 Sur 7 Sudoeste 0 -- -- 77
2019-02-08 19:00:00 10.3 3 Este 10 Este 0 -- -- 69
2019-02-08 18:00:00 12 3 Este 10 Sudeste 0 -- -- 63
2019-02-08 17:00:00 12.9 3 Sudeste 13 Este 0 -- -- 59
2019-02-08 16:00:00 12.2 8 Este 16 Este 0 -- -- 61
2019-02-08 15:00:00 11.3 8 Este 18 Este 0 -- -- 65
2019-02-08 14:00:00 10.2 8 Este 17 Este 0 -- -- 70
2019-02-08 13:00:00 6.1 2 Norte 6 Oeste 0 -- -- 100
2019-02-08 12:00:00 3.7 3 Noroeste 9 Noroeste 0 -- -- 100
2019-02-08 11:00:00 2.2 0 Calma 4 Norte 0 -- -- 100
2019-02-08 10:00:00 1.9 0 Calma 5 Norte 0 -- -- 100
2019-02-08 09:00:00 1.3 2 Sudeste 5 Sur 0 -- -- 99
2019-02-08 08:00:00 1.5 2 Nordeste 5 Este 0 -- -- 99
2019-02-08 07:00:00 1.5 0 Calma 5 Oeste 0 -- -- 98
2019-02-08 06:00:00 0.9 3 Oeste 6 Oeste 0 -- -- 97
2019-02-08 05:00:00 1.4 0 Calma 3 Oeste 0 -- -- 96
2019-02-08 04:00:00 2 2 Sudoeste 4 Oeste 0 -- -- 95
2019-02-08 03:00:00 2.5 0 Calma 4 Oeste 0 -- -- 95
2019-02-08 02:00:00 3.2 2 Oeste 4 Oeste 0 -- -- 94
2019-02-08 01:00:00 3.7 2 Sudoeste 6 Oeste 0 -- -- 93
2019-02-08 00:00:00 4.4 2 Sudoeste 5 Sudoeste 0 -- -- 91
2019-02-07 23:00:00 5.4 0 Calma 3 Sudoeste 0 -- -- 91
2019-02-07 22:00:00 6 0 Calma 4 Sudoeste 0 -- -- 88
2019-02-07 21:00:00 7.2 2 Sudoeste 6 Sur 0 -- -- 83
2019-02-07 20:00:00 8.4 2 Este 11 Oeste 0 -- -- 79
2019-02-07 19:00:00 10.3 3 Sudoeste 5 Oeste 0 -- -- 71
2019-02-07 18:00:00 11.6 5 Oeste 15 Oeste 0 -- -- 66
2019-02-07 17:00:00 12.4 6 Noroeste 17 Noroeste 0 -- -- 64
2019-02-07 16:00:00 12.1 9 Noroeste 18 Norte 0 -- -- 67
2019-02-07 15:00:00 14 3 Sudoeste 12 Sudoeste 0 -- -- 56
2019-02-07 14:00:00 12.9 5 Noroeste 14 Oeste 0 -- -- 59
2019-02-07 13:00:00 12.5 10 Noroeste 20 Oeste 0 -- -- 58
2019-02-07 12:00:00 10.2 10 Oeste 24 Oeste 0 -- -- 61
2019-02-07 11:00:00 9.5 12 Oeste 22 Sudoeste 0 -- -- 64
2019-02-07 10:00:00 7.6 10 Oeste 17 Oeste 0 -- -- 68
2019-02-07 09:00:00 6.8 7 Oeste 15 Sudoeste 0 -- -- 72
2019-02-07 08:00:00 6.2 3 Sudoeste 17 Sudoeste 0 -- -- 75
2019-02-07 07:00:00 7.2 8 Sudoeste 20 Oeste 0 -- -- 72
2019-02-07 06:00:00 8.3 11 Oeste 28 Oeste 0 -- -- 66
2019-02-07 05:00:00 8.2 11 Oeste 26 Oeste 0 -- -- 71
2019-02-07 04:00:00 7.3 6 Oeste 16 Oeste 0 -- -- 79
2019-02-07 03:00:00 6.7 3 Noroeste 6 Oeste 0 -- -- 83
2019-02-07 02:00:00 6.4 0 Calma 6 Norte 0 -- -- 86
2019-02-07 01:00:00 7.4 0 Calma 9 Oeste 0 -- -- 81
2019-02-07 00:00:00 7.7 4 Oeste 9 Oeste 0 -- -- 81
2019-02-06 23:00:00 8.9 4 Sudeste 21 Oeste 0 -- -- 77
2019-02-06 22:00:00 8.3 11 Sudoeste 18 Sudoeste 0 -- -- 83
2019-02-06 21:00:00 8.8 5 Sudoeste 8 Sudoeste 0 -- -- 81
2019-02-06 20:00:00 10.6 4 Oeste 7 Oeste 0 -- -- 74
2019-02-06 19:00:00 12.2 4 Oeste 17 Oeste 0 -- -- 67
2019-02-06 18:00:00 14 6 Oeste 17 Noroeste 0 -- -- 60
2019-02-06 17:00:00 15.1 10 Oeste 26 Oeste 0 -- -- 57
2019-02-06 16:00:00 15 15 Noroeste 27 Noroeste 0 -- -- 57
2019-02-06 15:00:00 14.4 17 Oeste 27 Oeste 0 -- -- 59
2019-02-06 14:00:00 13 13 Oeste 21 Oeste 0 -- -- 65
2019-02-06 13:00:00 11.4 9 Noroeste 15 Noroeste 0 -- -- 72
2019-02-06 12:00:00 8.8 8 Noroeste 14 Noroeste 0 -- -- 82
2019-02-06 11:00:00 5.5 5 Oeste 10 Oeste 0 -- -- 98
2019-02-06 10:00:00 2.6 4 Oeste 6 Oeste 0 -- -- 99
2019-02-06 09:00:00 0.9 0 Calma 14 Oeste 0 -- -- 98
2019-02-06 08:00:00 0.9 7 Oeste 12 Oeste 0 -- -- 97
2019-02-06 07:00:00 1.4 6 Oeste 12 Oeste 0 -- -- 97
2019-02-06 06:00:00 1.6 6 Oeste 10 Oeste 0 -- -- 97
2019-02-06 05:00:00 1.9 0 Calma 5 Noroeste 0 -- -- 96
2019-02-06 04:00:00 2.3 2 Noroeste 8 Oeste 0 -- -- 96
2019-02-06 03:00:00 2.7 0 Calma 4 Oeste 0 -- -- 95
2019-02-06 02:00:00 3.1 0 Calma 6 Oeste 0 -- -- 94
2019-02-06 01:00:00 3.8 4 Oeste 6 Oeste 0 -- -- 93
2019-02-06 00:00:00 4.6 0 Calma 4 Oeste 0 -- -- 90
2019-02-05 23:00:00 5.5 2 Sudoeste 5 Sudoeste 0 -- -- 86
2019-02-05 22:00:00 6.7 0 Calma 4 Nordeste 0 -- -- 82
2019-02-05 21:00:00 7.8 0 Calma 5 Nordeste 0 -- -- 79
2019-02-05 20:00:00 9.1 0 Calma 12 Sudoeste 0 -- -- 75
2019-02-05 19:00:00 10.4 6 Sudoeste 11 Sudoeste 0 -- -- 71
2019-02-05 18:00:00 13.2 5 Sudoeste 15 Oeste 0 -- -- 63
2019-02-05 17:00:00 14.3 10 Oeste 17 Oeste 0 -- -- 59
2019-02-05 16:00:00 14.1 9 Oeste 20 Oeste 0 -- -- 57
2019-02-05 15:00:00 13.4 13 Oeste 24 Oeste 0 -- -- 58
2019-02-05 14:00:00 12.5 16 Oeste 28 Oeste 0 -- -- 55
2019-02-05 13:00:00 11.5 18 Oeste 27 Oeste 0 -- -- 54
2019-02-05 12:00:00 9.3 12 Oeste 19 Oeste 0 -- -- 63
2019-02-05 11:00:00 6.9 8 Oeste 17 Sudoeste 0 -- -- 69
2019-02-05 10:00:00 5.9 5 Noroeste 18 Oeste 0 -- -- 74
2019-02-05 09:00:00 5.5 8 Oeste 22 Oeste 0 -- -- 76
2019-02-05 08:00:00 5.4 9 Oeste 18 Sudoeste 0 -- -- 73
2019-02-05 07:00:00 4.5 3 Noroeste 14 Oeste 0 -- -- 79
2019-02-05 06:00:00 4.7 5 Oeste 14 Oeste 0 -- -- 78
2019-02-05 05:00:00 5.4 8 Oeste 15 Oeste 0 -- -- 77
2019-02-05 04:00:00 6.3 7 Oeste 20 Oeste 0 -- -- 73
2019-02-05 03:00:00 6.4 8 Oeste 22 Oeste 0 -- -- 72
2019-02-05 02:00:00 6 10 Oeste 19 Oeste 0 -- -- 73
2019-02-05 01:00:00 6.1 9 Oeste 20 Oeste 0 -- -- 74
2019-02-05 00:00:00 6.3 12 Oeste 27 Sudoeste 0 -- -- 70
2019-02-04 23:00:00 6.6 15 Oeste 29 Oeste 0 -- -- 68
2019-02-04 22:00:00 6.3 17 Oeste 28 Oeste 0 -- -- 68
2019-02-04 21:00:00 6 14 Oeste 26 Oeste 0 -- -- 71
2019-02-04 20:00:00 6.2 15 Oeste 27 Oeste 0 -- -- 70
2019-02-04 19:00:00 6.3 15 Oeste 37 Oeste 0 -- -- 70
2019-02-04 18:00:00 6.7 18 Oeste 36 Oeste 0 -- -- 67
2019-02-04 17:00:00 7.1 14 Noroeste 27 Oeste 0 -- -- 66
2019-02-04 16:00:00 6.7 18 Oeste 30 Oeste 0 -- -- 66
2019-02-04 15:00:00 6.6 18 Oeste 31 Oeste 0 -- -- 65
2019-02-04 14:00:00 6.8 20 Oeste 36 Oeste 0 -- -- 64
2019-02-04 13:00:00 6.4 21 Oeste 32 Oeste 0 -- -- 67
2019-02-04 12:00:00 4.8 17 Oeste 35 Oeste 0 -- -- 71
2019-02-04 11:00:00 3.4 14 Oeste 26 Oeste 0 -- -- 74
2019-02-04 10:00:00 1.8 14 Oeste 27 Oeste 0 -- -- 80
2019-02-04 09:00:00 0.2 15 Oeste 27 Oeste 0 -- -- 83
2019-02-04 08:00:00 -0.3 12 Oeste 22 Oeste 0 -- -- 83
2019-02-04 07:00:00 -0.3 13 Oeste 22 Oeste 0 -- -- 87
2019-02-04 06:00:00 -0.6 5 Noroeste 12 Noroeste 0 -- -- 90
2019-02-04 05:00:00 -0.2 4 Noroeste 13 Oeste 0 -- -- 89
2019-02-04 04:00:00 0.4 4 Noroeste 10 Oeste 0 -- -- 89
2019-02-04 03:00:00 1.1 5 Oeste 21 Sudoeste 0 -- -- 86
2019-02-04 02:00:00 1.8 6 Oeste 12 Oeste 0 -- -- 89
2019-02-04 01:00:00 1.6 3 Noroeste 9 Noroeste 0 -- -- 90
2019-02-04 00:00:00 2.3 4 Noroeste 24 Oeste 0 -- -- 87
2019-02-03 23:00:00 3.1 12 Oeste 22 Oeste 0 -- -- 83
2019-02-03 22:00:00 3.4 7 Noroeste 21 Oeste 0 -- -- 83
2019-02-03 21:00:00 3.5 11 Oeste 21 Oeste 0 -- -- 85
2019-02-03 20:00:00 3.8 11 Oeste 18 Oeste 0 -- -- 81
2019-02-03 19:00:00 3.8 10 Oeste 17 Oeste 0 -- -- 83
2019-02-03 18:00:00 4.6 9 Oeste 27 Noroeste 0 -- -- 79
2019-02-03 17:00:00 5.4 9 Noroeste 24 Oeste 0 -- -- 81
2019-02-03 16:00:00 5.1 15 Oeste 30 Oeste 0 -- -- 81
2019-02-03 15:00:00 5.8 16 Oeste 31 Oeste 0 -- -- 77
2019-02-03 14:00:00 3.5 9 Oeste 37 Oeste 1.2 -- -- 94
2019-02-03 13:00:00 3.9 18 Oeste 33 Oeste 0 -- -- 86
2019-02-03 12:00:00 3.2 15 Oeste 29 Oeste 0.2 -- -- 86
2019-02-03 11:00:00 1.4 12 Sudoeste 31 Oeste 0.2 -- -- 93
2019-02-03 10:00:00 1.7 19 Oeste 34 Oeste 0.2 -- -- 93
2019-02-03 09:00:00 1.4 19 Oeste 34 Sudoeste 0.2 -- -- 92
2019-02-03 08:00:00 1.4 16 Oeste 27 Oeste 0 -- -- 92
2019-02-03 07:00:00 1.1 10 Oeste 30 Sudoeste 0.2 -- -- 91
2019-02-03 06:00:00 1.3 17 Oeste 30 Sudoeste 0 -- -- 91
2019-02-03 05:00:00 1.5 15 Oeste 27 Oeste 0 -- -- 91
2019-02-03 04:00:00 1.4 16 Oeste 33 Sudoeste 0 -- -- 88
2019-02-03 03:00:00 1.1 17 Oeste 37 Oeste 1.2 -- -- 95
2019-02-03 02:00:00 0.9 14 Noroeste 40 Noroeste 0.4 -- -- 93
2019-02-03 01:00:00 1.4 11 Noroeste 36 Sudoeste 0.8 -- -- 91
2019-02-03 00:00:00 1.4 18 Oeste 36 Oeste 1 -- -- 95
2019-02-02 23:00:00 1.8 21 Oeste 39 Oeste 0.2 -- -- 93
2019-02-02 22:00:00 1.4 18 Oeste 36 Oeste 0.4 -- -- 95
2019-02-02 21:00:00 1 12 Noroeste 31 Noroeste 1.2 -- -- 95
2019-02-02 20:00:00 1.5 12 Oeste 31 Oeste 0.6 -- -- 95
2019-02-02 19:00:00 1.2 15 Oeste 35 Oeste 0.8 -- -- 94
2019-02-02 18:00:00 1.2 26 Oeste 59 Oeste 2.8 -- -- 92
2019-02-02 17:00:00 2.2 21 Oeste 41 Oeste 0 -- -- 92
2019-02-02 16:00:00 1.5 15 Oeste 47 Oeste 2.4 -- -- 94
2019-02-02 15:00:00 2.9 19 Oeste 45 Noroeste 0.2 -- -- 88
2019-02-02 14:00:00 3.5 21 Noroeste 45 Oeste 0.2 -- -- 83
2019-02-02 13:00:00 2.5 26 Noroeste 59 Oeste 0.4 -- -- 86
2019-02-02 12:00:00 3.5 21 Oeste 48 Oeste 0 -- -- 83
2019-02-02 11:00:00 3.5 27 Oeste 46 Oeste 0 -- -- 83
2019-02-02 10:00:00 2.4 22 Oeste 44 Oeste 0.4 -- -- 94
2019-02-02 09:00:00 2.6 21 Oeste 45 Oeste 1.6 -- -- 93
2019-02-02 08:00:00 2.9 25 Oeste 58 Oeste 0.2 -- -- 91
2019-02-02 07:00:00 2.5 22 Oeste 48 Oeste 1.2 -- -- 95
2019-02-02 06:00:00 1.8 22 Oeste 43 Oeste 4.8 -- -- 98
2019-02-02 05:00:00 0.8 18 Oeste 33 Oeste 5.6 -- -- 97
2019-02-02 04:00:00 0.6 10 Oeste 32 Oeste 5 -- -- 95
2019-02-02 03:00:00 2.1 20 Oeste 39 Oeste 4 -- -- 92
2019-02-02 02:00:00 4.2 23 Oeste 40 Oeste 0 -- -- 86
2019-02-02 01:00:00 4.6 16 Oeste 42 Oeste 0 -- -- 84
2019-02-02 00:00:00 5.5 27 Oeste 48 Oeste 0 -- -- 76
2019-02-01 23:00:00 5.5 16 Oeste 35 Oeste 0 -- -- 74
2019-02-01 22:00:00 5.5 21 Oeste 43 Sudoeste 0 -- -- 71
2019-02-01 21:00:00 5.2 18 Oeste 37 Oeste 0 -- -- 71
2019-02-01 20:00:00 6.2 17 Oeste 37 Oeste 0 -- -- 68
2019-02-01 19:00:00 7 15 Oeste 41 Oeste 0 -- -- 63
2019-02-01 18:00:00 8.4 22 Oeste 50 Oeste 0 -- -- 53
2019-02-01 17:00:00 9.4 15 Oeste 62 Oeste 0 -- -- 56
2019-02-01 16:00:00 10.2 13 Sudoeste 31 Sudoeste 0 -- -- 52
2019-02-01 15:00:00 9.8 10 Sudoeste 35 Oeste 0 -- -- 62
2019-02-01 14:00:00 10.4 18 Oeste 37 Oeste 0 -- -- 55
2019-02-01 13:00:00 11.4 15 Oeste 41 Sudoeste 0 -- -- 54
2019-02-01 12:00:00 10.5 18 Oeste 36 Oeste 0 -- -- 53
2019-02-01 11:00:00 9.9 12 Sudoeste 28 Sudoeste 0 -- -- 57
2019-02-01 10:00:00 7.7 12 Oeste 23 Oeste 0 -- -- 64
2019-02-01 09:00:00 5.2 5 Sudoeste 10 Sudoeste 0 -- -- 82
2019-02-01 08:00:00 6.2 4 Oeste 14 Sudoeste 0 -- -- 82
2019-02-01 07:00:00 6.9 9 Oeste 20 Oeste 0 -- -- 77
2019-02-01 06:00:00 7 14 Oeste 26 Noroeste 0 -- -- 76
2019-02-01 05:00:00 8.2 19 Oeste 39 Oeste 0 -- -- 71
2019-02-01 04:00:00 7.9 10 Oeste 18 Noroeste 0 -- -- 88
2019-02-01 03:00:00 7.7 4 Oeste 23 Oeste 0 -- -- 87
2019-02-01 02:00:00 8 3 Oeste 15 Sudeste 0 -- -- 95
2019-02-01 01:00:00 7.4 3 Sudeste 8 Oeste 0 -- -- 98
2019-02-01 00:00:00 7.4 3 Sudeste 10 Sudeste 2.4 -- -- 99
2019-01-31 23:00:00 7.1 0 Calma 4 Nordeste 0.8 -- -- 98
2019-01-31 22:00:00 7.1 3 Sudeste 6 Sudeste 0 -- -- 97
2019-01-31 21:00:00 7.1 0 Calma 9 Nordeste 0 -- -- 96
2019-01-31 20:00:00 7.1 0 Calma 6 Este 0 -- -- 95
2019-01-31 19:00:00 7.4 3 Sudeste 12 Este 0 -- -- 95
2019-01-31 18:00:00 7.4 7 Este 12 Este 0 -- -- 94
2019-01-31 17:00:00 7.5 8 Este 16 Nordeste 0 -- -- 92
2019-01-31 16:00:00 7.2 6 Este 19 Este 0 -- -- 93
2019-01-31 15:00:00 7.4 8 Este 19 Este 0 -- -- 92
2019-01-31 14:00:00 6.9 10 Este 22 Este 0 -- -- 92
2019-01-31 13:00:00 6.6 8 Este 24 Este 0 -- -- 93
2019-01-31 12:00:00 6.4 11 Este 23 Este 0 -- -- 96
2019-01-31 11:00:00 5.2 7 Este 13 Este 0.4 -- -- 98
2019-01-31 10:00:00 4.3 4 Este 12 Este 0.6 -- -- 98
2019-01-31 09:00:00 4.2 5 Este 13 Este 1 -- -- 98
2019-01-31 08:00:00 4.1 5 Este 16 Este 2.6 -- -- 98
2019-01-31 07:00:00 4.2 6 Este 15 Este 1.2 -- -- 98
2019-01-31 06:00:00 4.2 9 Este 21 Este 0.6 -- -- 98
2019-01-31 05:00:00 4.2 8 Este 18 Este 0.2 -- -- 97
2019-01-31 04:00:00 4 10 Este 18 Este 0.2 -- -- 97
2019-01-31 03:00:00 4 6 Este 21 Este 0.8 -- -- 96
2019-01-31 02:00:00 4.3 5 Este 16 Este 1 -- -- 95
2019-01-31 01:00:00 4.6 8 Este 15 Este 1.4 -- -- 94
2019-01-31 00:00:00 4.8 7 Este 16 Sudeste 1 -- -- 93
2019-01-30 23:00:00 5.1 8 Este 18 Este 1.6 -- -- 93
2019-01-30 22:00:00 5.4 4 Sudeste 9 Sudeste 2.2 -- -- 94
2019-01-30 21:00:00 6.1 0 Calma 5 Sudeste 1.4 -- -- 88
2019-01-30 20:00:00 7.1 2 Sur 22 Noroeste 0.8 -- -- 80
2019-01-30 19:00:00 8.3 8 Oeste 15 Noroeste 0 -- -- 62
2019-01-30 18:00:00 9.1 9 Oeste 23 Oeste 0 -- -- 53
2019-01-30 17:00:00 9.2 13 Oeste 29 Oeste 0 -- -- 50
2019-01-30 16:00:00 9.4 19 Oeste 35 Oeste 0 -- -- 45
2019-01-30 15:00:00 9.3 19 Oeste 37 Oeste 0 -- -- 48
2019-01-30 14:00:00 9.1 19 Oeste 39 Oeste 0 -- -- 47
2019-01-30 13:00:00 8.5 23 Oeste 44 Oeste 0 -- -- 50
2019-01-30 12:00:00 7.3 17 Noroeste 38 Noroeste 0 -- -- 61
2019-01-30 11:00:00 6.5 19 Noroeste 35 Oeste 0 -- -- 64
2019-01-30 10:00:00 4.9 15 Oeste 32 Oeste 0 -- -- 72
2019-01-30 09:00:00 4 13 Oeste 23 Oeste 0 -- -- 77
2019-01-30 08:00:00 4.1 14 Oeste 24 Oeste 0 -- -- 77
2019-01-30 07:00:00 4.3 13 Oeste 23 Oeste 0 -- -- 77
2019-01-30 06:00:00 4.4 10 Oeste 20 Oeste 0 -- -- 77
2019-01-30 05:00:00 4.7 11 Oeste 22 Oeste 0 -- -- 77
2019-01-30 04:00:00 5 13 Oeste 26 Oeste 0 -- -- 73
2019-01-30 03:00:00 5.4 15 Oeste 30 Oeste 0 -- -- 67
2019-01-30 02:00:00 5.5 20 Oeste 36 Oeste 0 -- -- 66
2019-01-30 01:00:00 5.4 17 Oeste 47 Oeste 0 -- -- 69
2019-01-30 00:00:00 5.8 26 Oeste 43 Oeste 0 -- -- 65
2019-01-29 23:00:00 5.8 24 Oeste 43 Oeste 0 -- -- 67
2019-01-29 22:00:00 6.3 27 Oeste 45 Oeste 0 -- -- 69
2019-01-29 21:00:00 6.7 22 Oeste 49 Noroeste 0 -- -- 70
2019-01-29 20:00:00 7 24 Oeste 46 Oeste 0 -- -- 68
2019-01-29 19:00:00 7.4 26 Oeste 46 Oeste -- -- -- 69
2019-01-29 18:00:00 8.1 18 Noroeste 42 Oeste 0 -- -- 74
2019-01-29 17:00:00 8 18 Oeste 60 Noroeste 3.6 -- -- 89
2019-01-29 16:00:00 10.2 22 Noroeste 58 Oeste 0.2 -- -- 76
2019-01-29 15:00:00 11 23 Oeste 47 Oeste 0 -- -- 64
2019-01-29 14:00:00 10.1 20 Oeste 46 Sudoeste 0 -- -- 66
2019-01-29 13:00:00 7.7 18 Oeste 30 Noroeste 0 -- -- 79
2019-01-29 12:00:00 6.9 4 Noroeste 14 Oeste 0 -- -- 77
2019-01-29 11:00:00 6 4 Oeste 23 Noroeste 0 -- -- 81
2019-01-29 10:00:00 5.1 11 Noroeste 21 Noroeste 0 -- -- 82
2019-01-29 09:00:00 4.4 9 Oeste 22 Oeste 0 -- -- 81
2019-01-29 08:00:00 3.9 8 Oeste 17 Noroeste 0 -- -- 84
2019-01-29 07:00:00 4.1 8 Oeste 17 Oeste 0 -- -- 83
2019-01-29 06:00:00 4.5 8 Oeste 25 Sudoeste 0 -- -- 79
2019-01-29 05:00:00 4.2 12 Oeste 20 Oeste 0 -- -- 83
2019-01-29 04:00:00 4.8 4 Noroeste 17 Sudoeste 0 -- -- 83
2019-01-29 03:00:00 5.2 12 Oeste 23 Oeste 0 -- -- 84
2019-01-29 02:00:00 5.5 9 Oeste 18 Oeste 0 -- -- 86
2019-01-29 01:00:00 5.8 13 Oeste 22 Oeste 0 -- -- 85
2019-01-29 00:00:00 5.8 10 Oeste 18 Oeste 0.2 -- -- 87
2019-01-28 23:00:00 6 8 Noroeste 31 Oeste 0 -- -- 87
2019-01-28 22:00:00 6.2 16 Oeste 34 Oeste 0 -- -- 83
2019-01-28 21:00:00 6 22 Oeste 36 Oeste 0 -- -- 82
2019-01-28 20:00:00 5.8 19 Oeste 39 Oeste 0 -- -- 87
2019-01-28 19:00:00 6.1 21 Oeste 44 Oeste 0 -- -- 90
2019-01-28 18:00:00 6.1 15 Oeste 28 Noroeste 1 -- -- 91
2019-01-28 17:00:00 7.2 11 Noroeste 35 Sudoeste 0.4 -- -- 89
2019-01-28 16:00:00 7.1 17 Oeste 35 Oeste 0.8 -- -- 90
2019-01-28 15:00:00 7.4 14 Oeste 38 Noroeste 0.2 -- -- 87
2019-01-28 14:00:00 8.1 17 Oeste 46 Oeste 0.4 -- -- 86
2019-01-28 13:00:00 7.3 26 Oeste 50 Oeste 1.2 -- -- 88
2019-01-28 12:00:00 7.1 27 Oeste 49 Oeste 0.8 -- -- 83
2019-01-28 11:00:00 6.5 19 Oeste 39 Oeste 0 -- -- 82
2019-01-28 10:00:00 6 24 Oeste 40 Oeste 0 -- -- 77
2019-01-28 09:00:00 5.5 18 Oeste 39 Oeste 0 -- -- 77
2019-01-28 08:00:00 4.8 15 Noroeste 27 Oeste 0.2 -- -- 82
2019-01-28 07:00:00 4.5 15 Noroeste 35 Noroeste 0.2 -- -- 83
2019-01-28 06:00:00 4.9 15 Noroeste 33 Noroeste 0 -- -- 73
2019-01-28 05:00:00 4.6 16 Noroeste 28 Noroeste 0 -- -- 73
2019-01-28 04:00:00 4.8 10 Oeste 20 Oeste 0 -- -- 76
2019-01-28 03:00:00 5.2 11 Oeste 24 Oeste 0 -- -- 77
2019-01-28 02:00:00 5.5 13 Oeste 31 Oeste 0 -- -- 73
2019-01-28 01:00:00 5.7 19 Oeste 34 Oeste 0 -- -- 72
2019-01-28 00:00:00 5.4 18 Oeste 42 Oeste 0 -- -- 82
2019-01-27 23:00:00 5.5 18 Oeste 38 Oeste 0 -- -- 81
2019-01-27 22:00:00 5.4 16 Oeste 36 Oeste 0 -- -- 80
2019-01-27 21:00:00 5.1 19 Oeste 35 Oeste 0 -- -- 83
2019-01-27 20:00:00 5.3 15 Oeste 37 Sudoeste 0 -- -- 82
2019-01-27 19:00:00 6 25 Oeste 47 Oeste 0 -- -- 77
2019-01-27 18:00:00 6.3 21 Oeste 45 Oeste 0 -- -- 76
2019-01-27 17:00:00 6.7 19 Oeste 37 Noroeste 0 -- -- 75
2019-01-27 16:00:00 8.3 20 Oeste 51 Oeste 0 -- -- 65
2019-01-27 15:00:00 8 26 Oeste 47 Oeste 0 -- -- 66
2019-01-27 14:00:00 7.9 25 Oeste 50 Oeste 0 -- -- 73
2019-01-27 13:00:00 8.3 19 Noroeste 53 Oeste 0 -- -- 67
2019-01-27 12:00:00 8.6 27 Oeste 50 Oeste 0 -- -- 64
2019-01-27 11:00:00 8 22 Oeste 40 Oeste 0 -- -- 65
2019-01-27 10:00:00 7.2 23 Oeste 40 Oeste 0 -- -- 74
2019-01-27 09:00:00 6.7 21 Oeste 36 Oeste 0 -- -- 78
2019-01-27 08:00:00 6.9 19 Oeste 33 Oeste 0 -- -- 78
2019-01-27 07:00:00 7.1 17 Oeste 28 Oeste 0 -- -- 76
2019-01-27 06:00:00 6.3 13 Oeste 26 Oeste 0 -- -- 79
2019-01-27 05:00:00 6.3 15 Oeste 31 Sudoeste 0 -- -- 78
2019-01-27 04:00:00 6 6 Oeste 32 Sudoeste 0 -- -- 81
2019-01-27 03:00:00 6.1 16 Sudoeste 30 Sudoeste 0 -- -- 82
2019-01-27 02:00:00 6.7 9 Sudoeste 22 Oeste 0 -- -- 80
2019-01-27 01:00:00 6.4 10 Oeste 19 Oeste 0 -- -- 83
2019-01-27 00:00:00 6.7 10 Oeste 20 Sudoeste 0 -- -- 80
2019-01-26 23:00:00 7.8 17 Sudoeste 32 Oeste 0 -- -- 77
2019-01-26 22:00:00 8.2 13 Sudoeste 28 Oeste 0 -- -- 76
2019-01-26 21:00:00 8.8 9 Sudoeste 36 Oeste 0 -- -- 75
2019-01-26 20:00:00 9.5 16 Oeste 32 Oeste 0 -- -- 73
2019-01-26 19:00:00 9.9 19 Oeste 33 Oeste 0 -- -- 72
2019-01-26 18:00:00 11.1 25 Oeste 38 Oeste 0 -- -- 67
2019-01-26 17:00:00 12.2 18 Oeste 35 Oeste 0 -- -- 65
2019-01-26 16:00:00 12.3 14 Oeste 28 Oeste 0 -- -- 67
2019-01-26 15:00:00 10.8 17 Oeste 27 Oeste 0 -- -- 71
2019-01-26 14:00:00 10.2 14 Noroeste 25 Noroeste 0 -- -- 73
2019-01-26 13:00:00 10.2 10 Oeste 22 Oeste 0 -- -- 69
2019-01-26 12:00:00 9 10 Noroeste 20 Noroeste 0 -- -- 70
2019-01-26 11:00:00 7.9 8 Oeste 15 Oeste 0 -- -- 74
2019-01-26 10:00:00 5.2 6 Oeste 12 Oeste 0 -- -- 84
2019-01-26 09:00:00 4.9 3 Oeste 6 Oeste 0 -- -- 85
2019-01-26 08:00:00 6 0 Calma 6 Oeste 0 -- -- 84
2019-01-26 07:00:00 7 2 Noroeste 6 Noroeste 0 -- -- 83
2019-01-26 06:00:00 7.2 2 Noroeste 8 Oeste 0 -- -- 83
2019-01-26 05:00:00 7.3 5 Oeste 8 Oeste 0 -- -- 84
2019-01-26 04:00:00 7.6 3 Noroeste 8 Noroeste 0 -- -- 83
2019-01-26 03:00:00 7.8 4 Noroeste 16 Oeste 0 -- -- 82
2019-01-26 02:00:00 8 6 Oeste 13 Oeste 0 -- -- 81
2019-01-26 01:00:00 8.3 9 Oeste 20 Oeste 0 -- -- 79
2019-01-26 00:00:00 8.4 9 Sudoeste 23 Oeste 0 -- -- 78
2019-01-25 23:00:00 8.5 10 Oeste 18 Oeste 0 -- -- 76
2019-01-25 22:00:00 8.4 8 Sudoeste 18 Noroeste 0 -- -- 80
2019-01-25 21:00:00 8.5 13 Oeste 22 Oeste 0 -- -- 78
2019-01-25 20:00:00 8.8 11 Noroeste 26 Oeste 0 -- -- 76
2019-01-25 19:00:00 9.1 11 Oeste 31 Oeste 0 -- -- 77
2019-01-25 18:00:00 9.1 9 Oeste 24 Oeste 0 -- -- 80
2019-01-25 17:00:00 9.7 8 Noroeste 39 Noroeste 0 -- -- 74
2019-01-25 16:00:00 9.9 15 Noroeste 29 Noroeste 0 -- -- 76
2019-01-25 15:00:00 10.2 17 Oeste 37 Oeste 0 -- -- 73
2019-01-25 14:00:00 10.5 23 Noroeste 40 Noroeste 0 -- -- 71
2019-01-25 13:00:00 10.6 17 Noroeste 37 Oeste 0 -- -- 74
2019-01-25 12:00:00 10.4 15 Oeste 35 Oeste 0 -- -- 80
2019-01-25 11:00:00 10.2 16 Oeste 31 Oeste 0 -- -- 81
2019-01-25 10:00:00 9.1 15 Oeste 27 Noroeste 0.2 -- -- 91
2019-01-25 09:00:00 8.3 13 Sudoeste 30 Sudoeste 0 -- -- 94
2019-01-25 08:00:00 8.3 15 Sudoeste 31 Sudoeste 0 -- -- 93
2019-01-25 07:00:00 8.5 20 Oeste 33 Oeste 0.2 -- -- 90
2019-01-25 06:00:00 8.5 18 Oeste 37 Sudoeste 0 -- -- 90
2019-01-25 05:00:00 9 16 Oeste 34 Sudoeste 0.2 -- -- 87
2019-01-25 04:00:00 8.9 16 Oeste 36 Oeste 0 -- -- 89
2019-01-25 03:00:00 8.6 14 Oeste 28 Oeste 0 -- -- 92
2019-01-25 02:00:00 7.8 14 Sudoeste 30 Sudoeste 0.2 -- -- 96
2019-01-25 01:00:00 7.6 10 Sudoeste 21 Sudoeste 0.2 -- -- 95
2019-01-25 00:00:00 7.6 8 Sudoeste 21 Sudoeste 0.2 -- -- 93
2019-01-24 23:00:00 8.2 10 Sudoeste 24 Oeste 0 -- -- 86
2019-01-24 22:00:00 8 10 Sudoeste 37 Sudoeste 0.2 -- -- 85
2019-01-24 21:00:00 7 14 Sudoeste 26 Sudoeste 0 -- -- 90
2019-01-24 20:00:00 6.6 13 Sudoeste 24 Sudoeste 0 -- -- 93
2019-01-24 19:00:00 6.5 9 Sudoeste 17 Sudoeste 0 -- -- 93
2019-01-24 18:00:00 6.7 8 Oeste 18 Sudoeste 0 -- -- 90
2019-01-24 17:00:00 6.8 10 Sudoeste 22 Sudoeste 0 -- -- 90
2019-01-24 16:00:00 6.5 10 Sudoeste 24 Sudoeste 0 -- -- 91
2019-01-24 15:00:00 6.5 10 Sudoeste 24 Sudoeste 0 -- -- 89
2019-01-24 14:00:00 6.2 11 Oeste 19 Oeste 0 -- -- 89
2019-01-24 13:00:00 5.7 11 Oeste 22 Oeste 0.2 -- -- 92
2019-01-24 12:00:00 5.4 9 Oeste 17 Oeste 0.8 -- -- 94
2019-01-24 11:00:00 5.4 9 Oeste 18 Oeste 0 -- -- 91
2019-01-24 10:00:00 5.5 11 Oeste 24 Oeste 0 -- -- 87
2019-01-24 09:00:00 5.7 15 Oeste 25 Sudoeste 0 -- -- 83
2019-01-24 08:00:00 5.7 15 Oeste 26 Oeste 0 -- -- 83
2019-01-24 07:00:00 5.6 15 Oeste 27 Oeste 0 -- -- 84
2019-01-24 06:00:00 6.1 11 Noroeste 33 Noroeste 0 -- -- 83
2019-01-24 05:00:00 6.1 16 Noroeste 32 Noroeste 0 -- -- 85
2019-01-24 04:00:00 5.7 13 Oeste 25 Oeste 0.2 -- -- 92
2019-01-24 03:00:00 5.7 14 Oeste 36 Noroeste 0 -- -- 91
2019-01-24 02:00:00 5.8 19 Oeste 38 Oeste 0 -- -- 87
2019-01-24 01:00:00 6.5 19 Oeste 40 Noroeste 0.2 -- -- 82
2019-01-24 00:00:00 6.5 17 Oeste 45 Noroeste 0.2 -- -- 86
2019-01-23 23:00:00 6.9 19 Noroeste 54 Noroeste 0 -- -- 85
2019-01-23 22:00:00 7.4 24 Noroeste 47 Noroeste 0 -- -- 81
2019-01-23 21:00:00 7.8 24 Noroeste 52 Noroeste 0.2 -- -- 80
2019-01-23 20:00:00 8.5 21 Noroeste 44 Noroeste 0 -- -- 77
2019-01-23 19:00:00 8.6 26 Noroeste 48 Oeste 0 -- -- 76
2019-01-23 18:00:00 8.9 25 Noroeste 48 Noroeste 0 -- -- 74
2019-01-23 17:00:00 9.3 32 Noroeste 55 Noroeste 0 -- -- 73
2019-01-23 16:00:00 9.6 27 Noroeste 49 Noroeste 0 -- -- 71
2019-01-23 15:00:00 8.8 24 Noroeste 43 Oeste 0 -- -- 79
2019-01-23 14:00:00 9.1 22 Noroeste 46 Oeste 0 -- -- 79
2019-01-23 13:00:00 8.6 21 Oeste 40 Noroeste 0 -- -- 84
2019-01-23 12:00:00 8.2 25 Oeste 39 Oeste 0.2 -- -- 85
2019-01-23 11:00:00 8.3 27 Oeste 46 Oeste 0 -- -- 79
2019-01-23 10:00:00 7.5 25 Oeste 47 Oeste 0 -- -- 86
2019-01-23 09:00:00 7.3 30 Oeste 62 Oeste 0 -- -- 83
2019-01-23 08:00:00 6.6 31 Oeste 55 Oeste 0.6 -- -- 89
2019-01-23 07:00:00 5.2 16 Noroeste 32 Noroeste 0.6 -- -- 94
2019-01-23 06:00:00 4.8 19 Noroeste 37 Oeste 0.6 -- -- 97
2019-01-23 05:00:00 4.1 12 Noroeste 25 Noroeste 0.6 -- -- 97
2019-01-23 04:00:00 3.5 9 Noroeste 22 Oeste 0.2 -- -- 97
2019-01-23 03:00:00 3.5 12 Oeste 26 Oeste 1 -- -- 97
2019-01-23 02:00:00 3.7 11 Noroeste 26 Oeste 1.4 -- -- 97
2019-01-23 01:00:00 3.8 11 Oeste 24 Oeste 0.8 -- -- 97
2019-01-23 00:00:00 3.6 10 Oeste 19 Oeste 0.6 -- -- 97
2019-01-22 23:00:00 3.4 10 Oeste 22 Noroeste 0.2 -- -- 96
2019-01-22 22:00:00 3.4 12 Oeste 26 Oeste 0.4 -- -- 96
2019-01-22 21:00:00 3.8 14 Oeste 27 Noroeste 1.2 -- -- 94
2019-01-22 20:00:00 4.3 13 Oeste 22 Oeste 0.2 -- -- 91
2019-01-22 19:00:00 4.3 8 Oeste 24 Noroeste 0 -- -- 91
2019-01-22 18:00:00 4.3 11 Oeste 29 Oeste 0.2 -- -- 91
2019-01-22 17:00:00 4.8 12 Oeste 37 Oeste 0.2 -- -- 90
2019-01-22 16:00:00 5.3 18 Oeste 36 Oeste 0 -- -- 85
2019-01-22 15:00:00 4.8 17 Oeste 36 Oeste 0.4 -- -- 90
2019-01-22 14:00:00 4.5 13 Oeste 33 Sudoeste 0.4 -- -- 92
2019-01-22 13:00:00 3.6 11 Noroeste 27 Noroeste 1 -- -- 93
2019-01-22 12:00:00 4.2 12 Noroeste 30 Oeste 0 -- -- 85
2019-01-22 11:00:00 4 9 Oeste 18 Sudoeste 0 -- -- 80
2019-01-22 10:00:00 3.5 11 Oeste 21 Oeste 0 -- -- 80
2019-01-22 09:00:00 3 11 Oeste 18 Oeste 0 -- -- 83
2019-01-22 08:00:00 2.7 10 Oeste 18 Oeste 0 -- -- 85
2019-01-22 07:00:00 2.1 6 Oeste 12 Oeste 0 -- -- 87
2019-01-22 06:00:00 1.7 3 Noroeste 10 Oeste 0 -- -- 88
2019-01-22 05:00:00 1.7 4 Oeste 12 Oeste 0 -- -- 89
2019-01-22 04:00:00 1.7 2 Noroeste 9 Oeste 0 -- -- 89
2019-01-22 03:00:00 1.8 6 Oeste 10 Oeste 0 -- -- 89
2019-01-22 02:00:00 2 3 Noroeste 19 Oeste 0 -- -- 85
2019-01-22 01:00:00 2.8 13 Sudoeste 21 Oeste 0 -- -- 80
2019-01-22 00:00:00 3.2 6 Noroeste 25 Oeste 0 -- -- 80
2019-01-21 23:00:00 3.9 11 Oeste 27 Sudoeste 0 -- -- 82
2019-01-21 22:00:00 4.3 13 Oeste 28 Oeste 0 -- -- 76
2019-01-21 21:00:00 3.8 10 Oeste 23 Oeste 0 -- -- 78
2019-01-21 20:00:00 3.6 5 Oeste 14 Oeste 0 -- -- 80
2019-01-21 19:00:00 4.7 9 Oeste 17 Oeste 0 -- -- 74
2019-01-21 18:00:00 5.3 8 Oeste 26 Noroeste 0 -- -- 75
2019-01-21 17:00:00 6.1 15 Noroeste 26 Oeste 0 -- -- 69
2019-01-21 16:00:00 6.5 13 Noroeste 31 Sudoeste 0 -- -- 73
2019-01-21 15:00:00 6.8 17 Oeste 35 Oeste 0 -- -- 66
2019-01-21 14:00:00 5.5 15 Oeste 29 Sudoeste 0 -- -- 75
2019-01-21 13:00:00 5.3 14 Noroeste 33 Noroeste 0 -- -- 78
2019-01-21 12:00:00 5.9 13 Noroeste 29 Noroeste 0 -- -- 69
2019-01-21 11:00:00 5.3 11 Noroeste 22 Noroeste 0 -- -- 85
2019-01-21 10:00:00 4.6 8 Oeste 23 Sudoeste 0 -- -- 90
2019-01-21 09:00:00 4.3 6 Oeste 19 Oeste 0.2 -- -- 91
2019-01-21 08:00:00 4.2 8 Oeste 25 Oeste 0.4 -- -- 91
2019-01-21 07:00:00 4.7 14 Oeste 26 Oeste 0 -- -- 87
2019-01-21 06:00:00 4.6 13 Oeste 26 Oeste 0 -- -- 87
2019-01-21 05:00:00 4.5 14 Oeste 26 Oeste 0 -- -- 89
2019-01-21 04:00:00 4.4 13 Oeste 24 Oeste 0 -- -- 90
2019-01-21 03:00:00 4.4 13 Oeste 25 Oeste 0 -- -- 91
2019-01-21 02:00:00 4.8 9 Oeste 24 Oeste 0 -- -- 90
2019-01-21 01:00:00 4.9 11 Oeste 21 Oeste 0 -- -- 92
2019-01-21 00:00:00 4.6 12 Oeste 24 Oeste 0 -- -- 91
2019-01-20 23:00:00 4.3 11 Oeste 28 Oeste 0.2 -- -- 90
2019-01-20 22:00:00 5.1 12 Oeste 22 Oeste 0 -- -- 91
2019-01-20 21:00:00 5.5 10 Oeste 24 Oeste 0 -- -- 89
2019-01-20 20:00:00 5.5 9 Oeste 22 Oeste 0.2 -- -- 89
2019-01-20 19:00:00 5.2 14 Oeste 24 Oeste 0 -- -- 89
2019-01-20 18:00:00 5.7 12 Noroeste 25 Noroeste 0.2 -- -- 87
2019-01-20 17:00:00 6.5 9 Oeste 19 Oeste 0.4 -- -- 88
2019-01-20 16:00:00 6.9 11 Noroeste 27 Oeste 0.6 -- -- 89
2019-01-20 15:00:00 7.4 15 Oeste 32 Oeste 0 -- -- 81
2019-01-20 14:00:00 6.9 17 Oeste 32 Oeste 0 -- -- 84
2019-01-20 13:00:00 7.6 17 Noroeste 32 Oeste 0 -- -- 79
2019-01-20 12:00:00 7.5 19 Oeste 32 Oeste 0 -- -- 81
2019-01-20 11:00:00 5.8 15 Oeste 27 Oeste 0 -- -- 88
2019-01-20 10:00:00 5.2 14 Oeste 26 Oeste 0.2 -- -- 91
2019-01-20 09:00:00 4.8 10 Sudoeste 19 Oeste 0 -- -- 96
2019-01-20 08:00:00 4.6 8 Oeste 17 Oeste 0.6 -- -- 98
2019-01-20 07:00:00 4.5 4 Noroeste 7 Noroeste 0 -- -- 98
2019-01-20 06:00:00 4.5 3 Oeste 8 Sudoeste 0.2 -- -- 97
2019-01-20 05:00:00 4.5 0 Calma 4 Oeste 0.4 -- -- 97
2019-01-20 04:00:00 4.5 0 Calma 5 Sudoeste 0 -- -- 96
2019-01-20 03:00:00 4.5 0 Calma 8 Sudeste 0.2 -- -- 96
2019-01-20 02:00:00 4.6 5 Este 15 Este 0.4 -- -- 95
2019-01-20 01:00:00 4.8 5 Este 17 Sudeste 0.4 -- -- 95
2019-01-20 00:00:00 5 8 Este 20 Este 0.4 -- -- 94
2019-01-19 23:00:00 5.2 3 Sudeste 7 Este 0.4 -- -- 95
2019-01-19 22:00:00 5.4 0 Calma 5 Sudeste 1 -- -- 92
2019-01-19 21:00:00 5.6 2 Sudeste 4 Sudeste 0.6 -- -- 91
2019-01-19 20:00:00 5.8 0 Calma 2 Sudeste 0.2 -- -- 89
2019-01-19 19:00:00 6.2 0 Calma 9 Este 0 -- -- 86
2019-01-19 18:00:00 6.7 4 Este 10 Este 0.4 -- -- 81
2019-01-19 17:00:00 7.9 3 Este 7 Nordeste 0 -- -- 70
2019-01-19 16:00:00 8.4 5 Este 13 Nordeste 0 -- -- 63
2019-01-19 15:00:00 8.9 6 Este 13 Este 0 -- -- 62
2019-01-19 14:00:00 8.8 4 Este 8 Este 0 -- -- 63
2019-01-19 13:00:00 8.2 3 Noroeste 10 Oeste 0 -- -- 66
2019-01-19 12:00:00 7.2 3 Noroeste 12 Oeste 0 -- -- 70
2019-01-19 11:00:00 6.7 6 Noroeste 10 Noroeste 0 -- -- 68
2019-01-19 10:00:00 4.4 3 Noroeste 9 Oeste 0 -- -- 78
2019-01-19 09:00:00 4.1 2 Oeste 8 Sudoeste 0 -- -- 78
2019-01-19 08:00:00 4.6 4 Oeste 12 Sudoeste 0 -- -- 79
2019-01-19 07:00:00 4.7 6 Sudoeste 23 Oeste 0 -- -- 78
2019-01-19 06:00:00 4.6 13 Oeste 25 Oeste 0 -- -- 77
2019-01-19 05:00:00 4.6 12 Oeste 21 Sudoeste 0 -- -- 78
2019-01-19 04:00:00 4.8 10 Oeste 27 Noroeste 0 -- -- 78
2019-01-19 03:00:00 4.6 13 Oeste 32 Oeste 0 -- -- 78
2019-01-19 02:00:00 4.9 17 Oeste 31 Oeste 0 -- -- 77
2019-01-19 01:00:00 5.1 15 Oeste 28 Oeste 0 -- -- 74
2019-01-19 00:00:00 5.3 12 Oeste 26 Oeste 0 -- -- 75